Time;durP1;ratioP1;P1;durP2;ratioP2;P2;SDS_P1;SDS_P2;PMS_P1;PMS_P2;Temp;Humidity;BMP_temperature;BMP_pressure;BME280_temperature;BME280_humidity;BME280_pressure;Samples;Min_cycle;Max_cycle;Signal;HPM_P1;HPM_P2
2023/08/12 00:00:56;;;;;;;12.40;11.20;;;23.20;99.90;;;;;;4971153;28;20188;-82
2023/08/12 00:03:21;;;;;;;15.27;11.83;;;23.10;99.90;;;;;;4964957;28;20208;-83
2023/08/12 00:05:47;;;;;;;15.20;11.83;;;23.10;99.90;;;;;;4959527;28;20338;-81
2023/08/12 00:08:12;;;;;;;13.90;12.13;;;23.10;99.90;;;;;;4962305;28;20195;-80
2023/08/12 00:10:38;;;;;;;15.10;11.17;;;23.00;99.90;;;;;;4968233;28;20230;-81
2023/08/12 00:13:03;;;;;;;14.70;10.70;;;23.00;99.90;;;;;;4964202;28;20279;-82
2023/08/12 00:15:29;;;;;;;15.77;11.30;;;23.00;99.90;;;;;;4960855;28;20234;-83
2023/08/12 00:17:54;;;;;;;15.00;10.50;;;23.00;99.90;;;;;;4964653;28;20302;-83
2023/08/12 00:20:20;;;;;;;11.20;9.30;;;23.00;99.90;;;;;;4970158;28;20747;-81
2023/08/12 00:22:46;;;;;;;14.23;10.70;;;23.00;99.90;;;;;;4967555;28;20270;-80
2023/08/12 00:25:11;;;;;;;14.03;12.60;;;23.00;99.90;;;;;;4973320;28;20230;-83
2023/08/12 00:27:37;;;;;;;16.30;12.40;;;22.90;99.90;;;;;;4967893;28;20219;-82
2023/08/12 00:30:04;;;;;;;17.20;11.50;;;22.70;99.90;;;;;;4962261;28;20213;-83
2023/08/12 00:32:30;;;;;;;12.73;10.97;;;22.70;99.90;;;;;;4974117;28;20952;-82
2023/08/12 00:34:55;;;;;;;17.03;10.90;;;22.70;99.90;;;;;;4973537;28;20445;-83
2023/08/12 00:37:21;;;;;;;12.43;11.13;;;22.70;99.90;;;;;;4973605;28;20202;-81
2023/08/12 00:39:46;;;;;;;13.17;10.77;;;22.80;99.90;;;;;;4964206;28;20220;-84
2023/08/12 00:42:12;;;;;;;12.87;10.57;;;22.80;99.90;;;;;;4972879;28;20250;-81
2023/08/12 00:44:37;;;;;;;12.70;11.60;;;22.80;99.90;;;;;;4971417;28;20207;-85
2023/08/12 00:47:03;;;;;;;13.70;11.37;;;22.80;99.90;;;;;;4973578;28;20687;-84
2023/08/12 00:49:30;;;;;;;13.00;11.53;;;22.80;99.90;;;;;;4968288;28;20242;-83
2023/08/12 00:51:55;;;;;;;14.90;11.47;;;22.80;99.90;;;;;;4967085;28;20183;-82
2023/08/12 00:54:22;;;;;;;13.13;11.13;;;22.80;99.90;;;;;;4972478;28;20442;-83
2023/08/12 00:56:49;;;;;;;17.33;11.40;;;22.80;99.90;;;;;;4977995;28;20187;-83
2023/08/12 00:59:17;;;;;;;13.70;11.30;;;22.80;99.90;;;;;;4965190;28;20830;-83
2023/08/12 01:01:44;;;;;;;13.73;12.20;;;22.80;99.90;;;;;;4969537;28;20522;-83
2023/08/12 01:04:10;;;;;;;16.00;12.33;;;22.80;99.90;;;;;;4973067;28;20449;-81
2023/08/12 01:06:36;;;;;;;15.80;11.90;;;22.80;99.90;;;;;;4972877;28;20833;-85
2023/08/12 01:09:05;;;;;;;16.60;13.33;;;22.80;99.90;;;;;;4973264;28;20533;-83
2023/08/12 01:11:44;;;;;;;15.17;13.57;;;22.80;99.90;;;;;;4970955;28;20871;-82
2023/08/12 01:14:22;;;;;;;15.90;12.87;;;22.80;1.00;;;;;;4976328;28;20429;-84
2023/08/12 01:16:51;;;;;;;17.57;14.20;;;22.70;1.00;;;;;;4968189;28;20857;-82
2023/08/12 01:19:40;;;;;;;18.60;14.43;;;22.60;1.00;;;;;;4974030;28;20456;-83
2023/08/12 01:22:11;;;;;;;15.97;14.40;;;22.60;1.00;;;;;;4963987;28;20445;-82
2023/08/12 01:24:44;;;;;;;17.70;13.97;;;22.60;1.00;;;;;;4972730;28;20437;-81
2023/08/12 01:27:11;;;;;;;15.00;13.33;;;22.60;1.00;;;;;;4975400;28;20501;-84
2023/08/12 01:29:44;;;;;;;15.67;13.40;;;22.60;1.00;;;;;;4972681;28;20825;-83
2023/08/12 01:32:28;;;;;;;15.33;13.73;;;22.70;1.00;;;;;;4965318;28;20442;-80
2023/08/12 01:35:09;;;;;;;17.20;14.80;;;22.70;1.00;;;;;;4973364;28;20461;-83
2023/08/12 01:37:37;;;;;;;16.77;13.73;;;22.70;1.00;;;;;;4965578;28;20854;-83
2023/08/12 01:40:04;;;;;;;16.80;14.63;;;22.60;1.00;;;;;;4960946;28;20477;-83
2023/08/12 01:42:32;;;;;;;20.57;15.60;;;22.70;1.00;;;;;;4972686;28;20430;-81
2023/08/12 01:44:57;;;;;;;21.40;17.50;;;22.60;1.00;;;;;;4968668;28;20457;-83
2023/08/12 01:47:23;;;;;;;18.67;16.77;;;22.50;1.00;;;;;;4963205;28;20467;-81
2023/08/12 01:49:48;;;;;;;20.50;15.57;;;22.50;1.00;;;;;;4962609;28;20201;-80
2023/08/12 01:52:15;;;;;;;17.07;15.37;;;22.50;1.00;;;;;;4974393;28;20245;-81
2023/08/12 01:54:40;;;;;;;20.13;15.90;;;22.60;1.00;;;;;;4965901;28;20183;-81
2023/08/12 01:57:07;;;;;;;17.70;14.77;;;22.50;1.00;;;;;;4971011;28;20447;-83
2023/08/12 01:59:36;;;;;;;17.13;15.33;;;22.60;1.00;;;;;;4970869;28;20203;-80
2023/08/12 02:02:02;;;;;;;27.90;16.93;;;22.50;1.00;;;;;;4970739;28;20446;-84
2023/08/12 02:04:27;;;;;;;18.43;15.80;;;22.50;1.00;;;;;;4966623;28;20442;-81
2023/08/12 02:06:54;;;;;;;19.53;17.53;;;22.50;1.00;;;;;;4967009;28;20733;-81
2023/08/12 02:09:19;;;;;;;17.83;16.13;;;22.50;1.00;;;;;;4969807;28;20203;-83
2023/08/12 02:11:45;;;;;;;21.83;16.70;;;22.50;1.00;;;;;;4967106;28;20432;-83
2023/08/12 02:14:11;;;;;;;23.80;16.97;;;22.50;1.00;;;;;;4969013;28;20657;-82
2023/08/12 02:16:36;;;;;;;21.20;15.67;;;22.50;1.00;;;;;;4972576;28;20278;-83
2023/08/12 02:19:02;;;;;;;20.90;15.40;;;22.50;1.00;;;;;;4959160;28;20212;-81
2023/08/12 02:21:28;;;;;;;17.60;15.70;;;22.60;1.00;;;;;;4954668;28;20223;-81
2023/08/12 02:23:53;;;;;;;26.20;16.67;;;22.60;1.00;;;;;;4971639;28;20669;-82
2023/08/12 02:26:19;;;;;;;19.93;16.43;;;22.50;1.00;;;;;;4969995;28;20221;-84
2023/08/12 02:28:44;;;;;;;25.67;19.23;;;22.50;1.00;;;;;;4968743;28;20207;-83
2023/08/12 02:31:10;;;;;;;23.87;18.17;;;22.40;1.00;;;;;;4959824;28;20204;-83
2023/08/12 02:33:35;;;;;;;25.00;17.90;;;22.30;1.00;;;;;;4958201;28;20204;-84
2023/08/12 02:36:01;;;;;;;19.10;14.40;;;22.30;1.00;;;;;;4967214;28;20291;-80
2023/08/12 02:38:26;;;;;;;16.93;15.27;;;22.40;1.00;;;;;;4970365;28;20217;-81
2023/08/12 02:40:52;;;;;;;18.03;16.23;;;22.40;1.00;;;;;;4964698;28;20541;-82
2023/08/12 02:43:17;;;;;;;18.70;16.70;;;22.40;1.00;;;;;;4969513;28;20969;-81
2023/08/12 02:45:43;;;;;;;21.67;16.80;;;22.30;1.00;;;;;;4964483;28;20669;-83
2023/08/12 02:48:12;;;;;;;20.17;17.53;;;22.30;1.00;;;;;;4970123;28;20212;-83
2023/08/12 02:50:38;;;;;;;23.07;17.00;;;22.30;1.00;;;;;;4971761;28;20461;-81
2023/08/12 02:53:04;;;;;;;26.83;18.50;;;22.40;1.00;;;;;;4961429;28;20450;-82
2023/08/12 02:55:31;;;;;;;26.47;18.40;;;22.30;1.00;;;;;;4973644;28;20449;-83
2023/08/12 02:57:57;;;;;;;22.17;19.47;;;22.20;1.00;;;;;;4971624;28;20444;-82
2023/08/12 03:00:23;;;;;;;26.10;22.43;;;22.10;1.00;;;;;;4982345;28;20469;-83
2023/08/12 03:02:48;;;;;;;27.80;23.20;;;22.00;1.00;;;;;;4960857;28;20448;-82
2023/08/12 03:05:14;;;;;;;30.43;23.30;;;21.90;1.00;;;;;;4970594;28;20190;-82
2023/08/12 03:07:40;;;;;;;24.47;20.90;;;21.90;1.00;;;;;;4967909;28;20222;-80
2023/08/12 03:10:06;;;;;;;30.03;20.70;;;22.00;1.00;;;;;;4970800;28;20242;-80
2023/08/12 03:12:31;;;;;;;26.53;18.80;;;22.00;1.00;;;;;;4960563;28;20214;-81
2023/08/12 03:14:57;;;;;;;21.70;18.23;;;22.00;1.00;;;;;;4969908;28;20430;-83
2023/08/12 03:17:23;;;;;;;28.23;21.13;;;22.00;1.00;;;;;;4974652;28;20197;-82
2023/08/12 03:19:49;;;;;;;31.10;20.93;;;22.00;1.00;;;;;;4967912;28;20205;-83
2023/08/12 03:22:14;;;;;;;27.97;20.37;;;22.00;1.00;;;;;;4981652;28;20748;-83
2023/08/12 03:24:40;;;;;;;33.23;20.10;;;22.00;1.00;;;;;;4967260;28;20524;-83
2023/08/12 03:27:05;;;;;;;21.70;19.40;;;22.00;1.00;;;;;;4969549;28;20696;-82
2023/08/12 03:29:31;;;;;;;22.90;20.40;;;22.00;1.00;;;;;;4970410;28;20230;-81
2023/08/12 03:31:57;;;;;;;25.90;21.20;;;21.90;1.00;;;;;;4967703;28;20194;-83
2023/08/12 03:34:22;;;;;;;28.00;21.30;;;21.90;1.00;;;;;;4957198;28;20186;-82
2023/08/12 03:36:48;;;;;;;25.97;22.33;;;21.90;1.00;;;;;;4957553;28;20659;-80
2023/08/12 03:39:14;;;;;;;26.00;22.93;;;21.80;1.00;;;;;;4959482;28;20348;-80
2023/08/12 03:41:40;;;;;;;32.13;23.67;;;21.70;1.00;;;;;;4968813;28;21005;-81
2023/08/12 03:44:05;;;;;;;27.90;24.90;;;21.70;1.00;;;;;;4963596;28;20195;-83
2023/08/12 03:46:31;;;;;;;29.30;24.50;;;21.70;1.00;;;;;;4970278;28;20232;-84
2023/08/12 03:48:57;;;;;;;37.97;26.30;;;21.60;1.00;;;;;;4962382;28;20377;-82
2023/08/12 03:51:22;;;;;;;28.97;25.80;;;21.60;1.00;;;;;;4961398;28;20705;-82
2023/08/12 03:53:48;;;;;;;30.30;24.57;;;21.60;1.00;;;;;;4963778;28;20201;-83
2023/08/12 03:56:15;;;;;;;30.07;25.30;;;21.60;1.00;;;;;;4974091;28;20193;-84
2023/08/12 03:58:41;;;;;;;29.53;24.50;;;21.70;1.00;;;;;;4966862;28;20186;-81
2023/08/12 04:01:06;;;;;;;29.20;23.20;;;21.70;1.00;;;;;;4972479;28;20453;-82
2023/08/12 04:03:32;;;;;;;26.77;22.03;;;21.80;1.00;;;;;;4981970;28;20827;-81
2023/08/12 04:05:57;;;;;;;25.00;22.17;;;21.90;1.00;;;;;;4965970;28;20217;-82
2023/08/12 04:08:24;;;;;;;29.50;24.47;;;22.00;1.00;;;;;;4961946;28;20560;-82
2023/08/12 04:10:51;;;;;;;29.03;24.17;;;22.00;1.00;;;;;;4966709;28;20185;-82
2023/08/12 04:13:17;;;;;;;27.27;23.50;;;22.00;1.00;;;;;;4962973;28;20434;-84
2023/08/12 04:15:42;;;;;;;33.57;24.20;;;22.00;1.00;;;;;;4958001;28;20444;-82
2023/08/12 04:18:08;;;;;;;30.97;24.17;;;22.00;1.00;;;;;;4963446;28;20487;-83
2023/08/12 04:20:34;;;;;;;30.53;24.60;;;22.10;1.00;;;;;;4972051;28;20578;-83
2023/08/12 04:22:59;;;;;;;30.10;25.57;;;22.10;1.00;;;;;;4968786;28;20194;-82
2023/08/12 04:25:25;;;;;;;32.37;28.97;;;22.00;1.00;;;;;;4959211;28;20183;-83
2023/08/12 04:27:51;;;;;;;35.63;29.30;;;21.90;1.00;;;;;;4960436;28;20700;-84
2023/08/12 04:30:18;;;;;;;30.97;27.37;;;21.90;1.00;;;;;;4981647;28;20538;-83
2023/08/12 04:32:44;;;;;;;37.23;30.17;;;21.90;1.00;;;;;;4970883;28;20196;-83
2023/08/12 04:35:09;;;;;;;33.97;29.53;;;21.90;1.00;;;;;;4971742;28;20814;-84
2023/08/12 04:37:36;;;;;;;37.43;28.40;;;21.90;1.00;;;;;;4965832;28;20190;-83
2023/08/12 04:40:04;;;;;;;43.10;31.47;;;21.90;1.00;;;;;;4979818;28;20216;-82
2023/08/12 04:42:30;;;;;;;37.97;31.10;;;21.80;1.00;;;;;;4954374;28;20524;-83
2023/08/12 04:44:55;;;;;;;38.30;27.40;;;21.70;1.00;;;;;;4963455;28;21321;-83
2023/08/12 04:47:21;;;;;;;35.63;28.27;;;21.70;1.00;;;;;;4967292;28;20293;-83
2023/08/12 04:49:47;;;;;;;33.13;27.13;;;21.80;1.00;;;;;;4968180;28;20719;-82
2023/08/12 04:52:12;;;;;;;30.83;27.27;;;21.80;1.00;;;;;;4966715;28;20664;-83
2023/08/12 04:54:38;;;;;;;33.60;25.40;;;21.80;1.00;;;;;;4963736;28;20187;-82
2023/08/12 04:57:03;;;;;;;29.90;25.47;;;21.90;1.00;;;;;;4964462;28;20188;-81
2023/08/12 04:59:29;;;;;;;29.87;26.30;;;21.90;1.00;;;;;;4964749;28;20423;-80
2023/08/12 05:01:54;;;;;;;36.77;27.60;;;21.90;1.00;;;;;;4966159;28;20270;-80
2023/08/12 05:04:20;;;;;;;32.50;27.43;;;21.90;1.00;;;;;;4971179;28;20706;-83
2023/08/12 05:06:45;;;;;;;27.67;24.67;;;21.90;1.00;;;;;;4969375;28;20208;-83
2023/08/12 05:09:11;;;;;;;31.20;24.70;;;22.00;1.00;;;;;;4963270;28;20256;-84
2023/08/12 05:11:36;;;;;;;28.20;24.47;;;22.00;1.00;;;;;;4970095;28;20168;-82
2023/08/12 05:14:02;;;;;;;26.10;22.03;;;22.10;1.00;;;;;;4964319;28;20781;-83
2023/08/12 05:16:28;;;;;;;28.37;23.07;;;22.20;1.00;;;;;;4967483;28;20188;-82
2023/08/12 05:18:54;;;;;;;27.83;23.27;;;22.20;1.00;;;;;;4967324;28;20236;-82
2023/08/12 05:21:20;;;;;;;26.23;21.77;;;22.30;1.00;;;;;;4964399;28;20469;-83
2023/08/12 05:23:45;;;;;;;24.50;20.70;;;22.30;1.00;;;;;;4971322;28;20526;-80
2023/08/12 05:26:11;;;;;;;23.30;19.20;;;22.20;1.00;;;;;;4972815;28;20203;-82
2023/08/12 05:28:37;;;;;;;29.07;17.70;;;22.20;1.00;;;;;;4967771;28;20684;-80
2023/08/12 05:31:02;;;;;;;31.40;19.23;;;22.20;1.00;;;;;;4958249;28;20314;-83
2023/08/12 05:33:28;;;;;;;41.33;20.80;;;22.10;1.00;;;;;;4974718;28;20532;-82
2023/08/12 05:35:53;;;;;;;26.30;21.30;;;22.00;1.00;;;;;;4969239;28;20190;-82
2023/08/12 05:38:19;;;;;;;32.33;23.33;;;21.90;1.00;;;;;;4965425;28;20261;-83
2023/08/12 05:40:44;;;;;;;41.60;26.17;;;21.80;1.00;;;;;;4964344;28;20212;-84
2023/08/12 05:43:10;;;;;;;34.43;23.43;;;21.70;5.10;;;;;;4975396;28;20188;-83
2023/08/12 05:45:35;;;;;;;35.47;22.63;;;21.60;24.20;;;;;;4968472;28;20212;-83
2023/08/12 05:48:01;;;;;;;35.40;23.80;;;21.50;40.30;;;;;;4968308;28;20196;-85
2023/08/12 05:50:26;;;;;;;36.20;23.47;;;21.40;51.00;;;;;;4973594;28;20213;-83
2023/08/12 05:52:52;;;;;;;52.90;25.77;;;21.30;64.60;;;;;;4973325;28;20197;-84
2023/08/12 05:55:17;;;;;;;44.20;26.83;;;21.30;76.10;;;;;;4972840;28;20244;-83
2023/08/12 05:57:43;;;;;;;50.50;29.47;;;21.20;87.10;;;;;;4977049;28;20270;-84
2023/08/12 06:00:09;;;;;;;42.00;28.73;;;21.10;91.70;;;;;;4980250;28;20643;-83
2023/08/12 06:02:34;;;;;;;42.60;24.53;;;21.10;95.20;;;;;;4973773;28;20677;-81
2023/08/12 06:05:00;;;;;;;44.43;24.67;;;21.10;97.20;;;;;;4977523;28;20456;-82
2023/08/12 06:07:25;;;;;;;39.33;23.50;;;21.00;98.60;;;;;;4978436;28;20206;-81
2023/08/12 06:09:51;;;;;;;33.93;17.70;;;21.00;99.90;;;;;;4970079;28;20209;-82
2023/08/12 06:12:17;;;;;;;29.10;18.83;;;20.90;99.90;;;;;;4973543;28;20291;-82
2023/08/12 06:14:42;;;;;;;44.00;17.47;;;20.90;99.90;;;;;;4974934;28;20264;-83
2023/08/12 06:17:08;;;;;;;25.53;17.13;;;20.80;99.90;;;;;;4981268;28;20196;-82
2023/08/12 06:19:34;;;;;;;40.60;14.97;;;20.80;99.90;;;;;;4976852;28;20217;-82
2023/08/12 06:21:59;;;;;;;23.60;13.97;;;20.80;99.90;;;;;;4974992;28;20205;-83
2023/08/12 06:24:25;;;;;;;24.50;16.00;;;20.70;99.90;;;;;;4964239;28;20448;-83
2023/08/12 06:26:50;;;;;;;22.27;15.93;;;20.80;99.90;;;;;;4975258;28;20270;-82
2023/08/12 06:29:16;;;;;;;26.10;15.97;;;20.80;99.90;;;;;;4975264;28;20211;-83
2023/08/12 06:31:42;;;;;;;34.53;15.77;;;20.80;99.90;;;;;;4972126;28;20181;-83
2023/08/12 06:34:07;;;;;;;17.30;13.10;;;20.90;99.90;;;;;;4967467;28;20202;-83
2023/08/12 06:36:33;;;;;;;17.83;12.97;;;21.00;99.90;;;;;;4977420;28;20192;-84
2023/08/12 06:38:58;;;;;;;20.37;14.73;;;21.00;99.90;;;;;;4971409;28;20635;-83
2023/08/12 06:41:24;;;;;;;17.20;14.30;;;21.10;97.80;;;;;;4975086;28;20220;-84
2023/08/12 06:43:49;;;;;;;17.40;12.77;;;21.10;95.40;;;;;;4968624;28;20200;-83
2023/08/12 06:46:15;;;;;;;16.90;12.40;;;21.10;92.50;;;;;;4967415;28;20242;-84
2023/08/12 06:48:40;;;;;;;15.17;12.10;;;21.20;95.20;;;;;;4975029;28;20198;-84
2023/08/12 06:51:12;;;;;;;14.20;11.53;;;21.40;92.80;;;;;;4968799;28;20194;-83
2023/08/12 06:53:40;;;;;;;15.10;11.03;;;21.50;80.50;;;;;;4971465;28;20175;-83
2023/08/12 06:56:06;;;;;;;15.20;10.40;;;21.60;75.70;;;;;;4967216;28;20446;-83
2023/08/12 06:58:31;;;;;;;16.00;11.20;;;21.70;53.80;;;;;;4967771;28;20444;-83
2023/08/12 07:00:58;;;;;;;12.97;10.50;;;21.70;37.90;;;;;;4968478;28;20672;-84
2023/08/12 07:03:24;;;;;;;13.50;9.53;;;21.80;38.20;;;;;;4970511;28;20182;-83
2023/08/12 07:05:50;;;;;;;11.63;8.80;;;21.90;19.40;;;;;;4970200;28;20478;-84
2023/08/12 07:08:15;;;;;;;11.67;7.93;;;22.00;9.00;;;;;;4972594;28;20477;-84
2023/08/12 07:10:41;;;;;;;9.27;7.60;;;22.00;1.00;;;;;;4967347;28;20218;-83
2023/08/12 07:13:07;;;;;;;8.90;7.20;;;22.00;1.00;;;;;;4964528;28;20206;-84
2023/08/12 07:15:33;;;;;;;7.37;6.17;;;22.00;1.00;;;;;;4964142;28;20182;-84
2023/08/12 07:17:58;;;;;;;8.10;5.90;;;22.10;1.00;;;;;;4965525;28;20223;-84
2023/08/12 07:20:24;;;;;;;6.20;4.70;;;22.00;1.00;;;;;;4965318;28;20266;-83
2023/08/12 07:22:50;;;;;;;5.93;4.70;;;22.00;1.00;;;;;;4972705;28;20617;-83
2023/08/12 07:25:15;;;;;;;5.03;4.13;;;22.00;1.00;;;;;;4967888;28;20473;-83
2023/08/12 07:27:41;;;;;;;8.10;4.13;;;22.00;1.00;;;;;;4973147;28;20217;-83
2023/08/12 07:30:08;;;;;;;7.40;4.40;;;22.00;1.00;;;;;;4976073;28;20221;-84
2023/08/12 07:32:34;;;;;;;10.20;4.00;;;22.00;1.00;;;;;;4975466;28;20188;-83
2023/08/12 07:34:59;;;;;;;4.70;4.20;;;22.00;1.00;;;;;;4963986;28;20438;-83
2023/08/12 07:37:25;;;;;;;5.00;4.37;;;22.00;1.00;;;;;;4964547;28;20250;-83
2023/08/12 07:39:51;;;;;;;5.87;4.20;;;22.10;1.00;;;;;;4973204;28;20218;-84
2023/08/12 07:42:17;;;;;;;3.80;3.23;;;22.20;1.00;;;;;;4977885;28;20495;-83
2023/08/12 07:44:42;;;;;;;7.40;3.53;;;22.20;1.00;;;;;;4969044;28;20194;-83
2023/08/12 07:47:09;;;;;;;6.17;3.07;;;22.40;1.00;;;;;;4970235;28;20223;-83
2023/08/12 07:49:34;;;;;;;3.30;3.00;;;22.60;1.00;;;;;;4972139;28;20208;-84
2023/08/12 07:52:00;;;;;;;4.97;2.80;;;22.90;1.00;;;;;;4961874;28;20449;-84
2023/08/12 07:54:26;;;;;;;4.30;2.93;;;23.20;1.00;;;;;;4969118;28;20774;-83
2023/08/12 07:56:53;;;;;;;3.40;3.10;;;23.50;1.00;;;;;;4964100;28;20236;-83
2023/08/12 07:59:19;;;;;;;4.10;3.07;;;23.80;99.90;;;;;;4965767;28;20214;-83
2023/08/12 08:01:45;;;;;;;4.70;2.53;;;24.10;99.90;;;;;;4971535;28;20445;-84
2023/08/12 08:04:10;;;;;;;3.10;2.43;;;24.30;1.00;;;;;;4965720;28;20454;-84
2023/08/12 08:06:36;;;;;;;3.63;2.13;;;24.50;99.90;;;;;;4958468;28;20313;-83
2023/08/12 08:09:03;;;;;;;2.80;2.37;;;24.40;24.10;;;;;;4967810;28;20559;-83
2023/08/12 08:11:30;;;;;;;4.63;2.53;;;24.30;99.90;;;;;;4962765;28;20211;-84
2023/08/12 08:13:57;;;;;;;3.57;2.20;;;24.00;99.90;;;;;;4956145;28;20443;-83
2023/08/12 08:16:22;;;;;;;4.13;2.20;;;23.90;1.00;;;;;;4963044;28;20437;-83
2023/08/12 08:18:48;;;;;;;2.53;2.33;;;23.70;1.00;;;;;;4955673;28;20471;-83
2023/08/12 08:21:13;;;;;;;3.33;2.40;;;23.60;55.20;;;;;;4971330;28;20260;-83
2023/08/12 08:23:40;;;;;;;2.73;2.53;;;23.50;99.90;;;;;;4974609;28;20196;-83
2023/08/12 08:26:06;;;;;;;4.50;2.43;;;23.40;99.90;;;;;;4970168;28;20316;-83
2023/08/12 08:28:32;;;;;;;3.97;2.20;;;23.30;99.90;;;;;;4967458;28;20448;-85
2023/08/12 08:30:58;;;;;;;2.93;2.10;;;23.20;99.90;;;;;;4969770;28;20273;-84
2023/08/12 08:33:24;;;;;;;3.60;2.23;;;23.20;99.90;;;;;;4972129;28;20445;-84
2023/08/12 08:35:50;;;;;;;2.27;2.07;;;23.10;99.90;;;;;;4977196;28;20179;-83
2023/08/12 08:38:15;;;;;;;3.63;2.17;;;23.10;99.90;;;;;;4975052;28;20477;-83
2023/08/12 08:40:42;;;;;;;4.70;2.07;;;23.20;99.90;;;;;;4979748;28;20244;-83
2023/08/12 08:43:08;;;;;;;2.50;2.07;;;23.20;99.90;;;;;;4974786;28;20229;-82
2023/08/12 08:45:34;;;;;;;2.90;2.07;;;23.30;99.90;;;;;;4973604;28;20508;-82
2023/08/12 08:48:01;;;;;;;4.70;2.07;;;23.40;99.90;;;;;;4972610;28;20490;-82
2023/08/12 08:50:29;;;;;;;5.27;2.20;;;23.60;99.90;;;;;;4980074;28;20465;-82
2023/08/12 08:52:56;;;;;;;2.90;2.13;;;23.90;99.90;;;;;;4973255;28;20817;-83
2023/08/12 08:55:22;;;;;;;1.97;1.80;;;24.00;99.90;;;;;;4978654;28;20449;-83
2023/08/12 08:57:49;;;;;;;2.43;1.70;;;24.30;99.90;;;;;;4978435;28;20446;-82
2023/08/12 09:00:16;;;;;;;3.77;1.67;;;24.70;99.90;;;;;;4978359;28;20212;-82
2023/08/12 09:02:45;;;;;;;1.90;1.80;;;25.10;1.00;;;;;;4969275;28;20451;-83
2023/08/12 09:05:12;;;;;;;2.70;2.10;;;25.30;12.40;;;;;;4978420;28;20439;-82
2023/08/12 09:07:38;;;;;;;1.80;1.50;;;25.40;1.00;;;;;;4973654;28;20512;-83
2023/08/12 09:10:05;;;;;;;3.10;2.27;;;25.40;1.00;;;;;;4980173;28;20463;-82
2023/08/12 09:12:32;;;;;;;2.37;1.80;;;25.30;2.30;;;;;;4982432;28;20447;-83
2023/08/12 09:14:57;;;;;;;2.43;1.70;;;25.10;99.90;;;;;;4978315;28;20446;-83
2023/08/12 09:17:23;;;;;;;2.67;1.73;;;25.00;1.00;;;;;;4976670;28;20462;-82
2023/08/12 09:19:49;;;;;;;3.63;2.00;;;25.00;1.00;;;;;;4972112;28;20216;-82
2023/08/12 09:22:15;;;;;;;2.60;1.73;;;25.00;99.90;;;;;;4974617;28;20279;-83
2023/08/12 09:24:42;;;;;;;2.13;1.37;;;25.60;71.20;;;;;;4975795;28;20478;-82
2023/08/12 09:27:08;;;;;;;1.60;1.20;;;26.20;1.00;;;;;;4973558;28;20219;-82
2023/08/12 09:29:35;;;;;;;2.23;1.27;;;27.10;1.00;;;;;;4981675;28;20448;-83
2023/08/12 09:32:17;;;;;;;1.60;1.00;;;27.70;99.90;;;;;;4963751;28;20563;-83
2023/08/12 09:34:51;;;;;;;1.60;1.10;;;27.60;99.90;;;;;;4970223;28;20462;-83
2023/08/12 09:37:17;;;;;;;1.80;1.10;;;27.50;99.90;;;;;;4961460;28;20441;-83
2023/08/12 09:39:42;;;;;;;2.17;1.27;;;27.70;99.90;;;;;;4958028;28;20463;-83
2023/08/12 09:42:09;;;;;;;1.63;1.10;;;27.50;99.90;;;;;;4965744;28;20865;-83
2023/08/12 09:44:39;;;;;;;6.50;1.10;;;27.30;99.90;;;;;;4962459;28;20231;-83
2023/08/12 09:47:06;;;;;;;1.30;0.90;;;26.90;99.90;;;;;;4966520;28;20475;-83
2023/08/12 09:49:32;;;;;;;2.27;1.07;;;26.50;99.90;;;;;;4969323;28;20440;-83
2023/08/12 09:51:57;;;;;;;1.37;1.07;;;26.20;1.00;;;;;;4962680;28;20444;-83
2023/08/12 09:54:26;;;;;;;1.83;1.17;;;25.70;1.00;;;;;;4961829;28;20614;-83
2023/08/12 09:56:57;;;;;;;1.27;0.90;;;25.40;99.90;;;;;;4964511;28;20255;-83
2023/08/12 09:59:23;;;;;;;1.60;1.10;;;25.10;1.00;;;;;;4973705;28;20495;-83
2023/08/12 10:01:50;;;;;;;1.70;1.00;;;24.80;99.90;;;;;;4958869;28;21016;-83
2023/08/12 10:04:18;;;;;;;2.00;1.40;;;24.80;99.90;;;;;;4967562;28;20449;-83
2023/08/12 10:06:44;;;;;;;2.50;1.50;;;24.70;1.00;;;;;;4968110;28;21327;-83
2023/08/12 10:09:11;;;;;;;1.97;1.20;;;24.60;89.40;;;;;;4962521;28;20465;-83
2023/08/12 10:11:37;;;;;;;2.60;1.83;;;24.50;99.90;;;;;;4966290;28;20451;-83
2023/08/12 10:14:04;;;;;;;3.70;1.60;;;24.40;99.90;;;;;;4971983;28;20439;-83
2023/08/12 10:16:30;;;;;;;6.00;1.63;;;24.40;99.90;;;;;;4971983;28;20446;-83
2023/08/12 10:18:57;;;;;;;1.90;1.30;;;24.40;99.90;;;;;;4976069;28;20501;-83
2023/08/12 10:21:24;;;;;;;3.20;1.20;;;24.50;99.90;;;;;;4967756;28;20230;-83
2023/08/12 10:23:50;;;;;;;1.50;1.27;;;24.70;98.50;;;;;;4973064;28;20442;-83
2023/08/12 10:26:17;;;;;;;3.43;1.10;;;24.70;99.90;;;;;;4970094;28;20507;-83
2023/08/12 10:28:43;;;;;;;2.33;1.30;;;24.70;99.90;;;;;;4974149;28;20438;-84
2023/08/12 10:31:11;;;;;;;1.70;1.10;;;24.50;1.00;;;;;;4970820;28;20440;-84
2023/08/12 10:33:38;;;;;;;1.77;1.17;;;24.60;99.90;;;;;;4984222;28;20444;-83
2023/08/12 10:36:05;;;;;;;1.93;1.30;;;24.50;99.90;;;;;;4968515;28;20446;-83
2023/08/12 10:38:32;;;;;;;1.47;0.87;;;24.50;99.90;;;;;;4974399;28;20486;-84
2023/08/12 10:41:22;;;;;;;1.33;0.97;;;24.50;30.60;;;;;;4973408;28;20443;-84
2023/08/12 10:43:55;;;;;;;1.70;1.20;;;24.60;99.90;;;;;;4971989;28;20474;-83
2023/08/12 10:46:33;;;;;;;1.77;1.07;;;24.80;99.90;;;;;;4971989;28;20467;-84
2023/08/12 10:49:11;;;;;;;1.43;0.90;;;25.00;1.00;;;;;;4975268;28;20463;-84
2023/08/12 10:51:53;;;;;;;1.43;1.03;;;25.20;99.90;;;;;;4977263;28;20429;-84
2023/08/12 10:54:29;;;;;;;1.83;0.70;;;25.30;1.00;;;;;;4971889;28;20800;-83
2023/08/12 10:57:14;;;;;;;1.47;0.90;;;25.30;99.90;;;;;;4973764;28;20470;-84
2023/08/12 10:59:46;;;;;;;1.23;0.90;;;25.50;1.00;;;;;;4969460;28;20455;-84
2023/08/12 11:02:36;;;;;;;1.30;1.00;;;25.90;1.00;;;;;;4968967;28;20442;-84
2023/08/12 11:05:07;;;;;;;1.67;0.90;;;26.70;1.00;;;;;;4961558;28;20454;-84
2023/08/12 11:07:38;;;;;;;1.60;0.60;;;27.20;29.40;;;;;;4970588;28;20482;-84
2023/08/12 11:10:19;;;;;;;1.73;0.97;;;27.30;99.90;;;;;;4964638;28;20459;-83
2023/08/12 11:12:56;;;;;;;1.30;0.97;;;27.20;99.90;;;;;;4967583;28;20439;-83
2023/08/12 11:15:37;;;;;;;1.30;0.80;;;26.90;1.00;;;;;;4968956;28;20440;-84
2023/08/12 11:18:14;;;;;;;1.10;0.70;;;26.90;1.00;;;;;;4966778;28;20445;-84
2023/08/12 11:20:40;;;;;;;1.27;0.80;;;26.60;1.00;;;;;;4966523;28;20471;-83
2023/08/12 11:23:07;;;;;;;1.40;0.80;;;26.20;1.00;;;;;;4963597;28;20444;-83
2023/08/12 11:25:34;;;;;;;1.40;0.70;;;25.80;99.90;;;;;;4968901;28;20431;-84
2023/08/12 11:28:00;;;;;;;1.30;0.80;;;25.50;1.00;;;;;;4971181;28;20546;-84
2023/08/12 11:30:26;;;;;;;1.30;0.87;;;25.50;1.00;;;;;;4968104;28;20460;-83
2023/08/12 11:32:53;;;;;;;1.30;0.87;;;25.70;1.00;;;;;;4967979;28;20428;-84
2023/08/12 11:35:20;;;;;;;1.50;0.90;;;25.80;1.00;;;;;;4970014;28;20817;-84
2023/08/12 11:37:48;;;;;;;1.20;0.87;;;26.00;99.90;;;;;;4974709;28;20439;-84
2023/08/12 11:40:18;;;;;;;1.67;0.90;;;26.10;99.90;;;;;;4975373;28;20471;-84
2023/08/12 11:42:47;;;;;;;1.90;0.80;;;26.30;99.90;;;;;;4974249;28;20446;-83
2023/08/12 11:45:14;;;;;;;1.83;0.93;;;27.00;1.00;;;;;;4970456;28;20437;-84
2023/08/12 11:47:41;;;;;;;1.50;0.70;;;27.20;99.90;;;;;;4963749;28;20471;-84
2023/08/12 11:50:08;;;;;;;1.20;0.70;;;27.20;99.90;;;;;;4974568;28;20463;-84
2023/08/12 11:52:35;;;;;;;1.93;0.90;;;27.10;99.90;;;;;;4977399;28;20431;-84
2023/08/12 11:55:01;;;;;;;1.37;0.90;;;26.90;99.90;;;;;;4979023;28;20507;-84
2023/08/12 11:57:28;;;;;;;2.93;1.10;;;26.50;1.00;;;;;;4971626;28;20448;-84
2023/08/12 11:59:59;;;;;;;10.67;2.40;;;26.10;99.90;;;;;;4968018;28;20470;-85
2023/08/12 12:02:25;;;;;;;2.63;1.23;;;25.60;1.00;;;;;;4977021;28;20479;-83
2023/08/12 12:04:52;;;;;;;1.97;1.33;;;25.10;1.00;;;;;;4970290;28;20461;-82
2023/08/12 12:07:23;;;;;;;3.33;1.70;;;24.90;1.00;;;;;;4989065;28;20223;-83
2023/08/12 12:09:53;;;;;;;1.73;1.33;;;24.60;1.00;;;;;;4971596;28;20546;-83
2023/08/12 12:12:23;;;;;;;2.40;1.37;;;24.40;52.00;;;;;;4972410;28;20435;-82
2023/08/12 12:14:50;;;;;;;5.80;1.40;;;24.20;1.00;;;;;;4974899;28;21413;-82
2023/08/12 12:17:16;;;;;;;3.07;1.40;;;24.10;1.00;;;;;;4974101;28;20447;-83
2023/08/12 12:19:41;;;;;;;1.57;1.37;;;24.00;99.90;;;;;;4975282;28;20473;-83
2023/08/12 12:22:07;;;;;;;1.50;1.33;;;24.10;1.00;;;;;;4981097;28;20194;-82
2023/08/12 12:24:48;;;;;;;3.07;1.60;;;24.10;99.90;;;;;;4986325;28;20201;-82
2023/08/12 12:27:14;;;;;;;2.67;2.13;;;23.80;1.00;;;;;;4979472;28;20244;-82
2023/08/12 12:29:40;;;;;;;3.10;2.73;;;23.70;1.00;;;;;;4976590;28;20469;-82
2023/08/12 12:32:05;;;;;;;3.63;3.33;;;23.50;1.00;;;;;;4977679;28;20453;-83
2023/08/12 12:34:31;;;;;;;3.07;2.87;;;23.50;1.00;;;;;;4980615;28;20464;-83
2023/08/12 12:36:56;;;;;;;3.60;3.13;;;23.80;1.00;;;;;;4970677;28;20207;-84
2023/08/12 12:39:23;;;;;;;2.70;2.50;;;24.20;99.90;;;;;;4972490;28;20270;-85